Aérodrome :
LOGIN :

S'inscrire | Disclaimer

   EN    FR    IT 

 










Légende :    VFR   VFR Marginal   IFR   IFR Intensif   IFR Très Intensif
Visi : 
Plafond : 
>= 8 km
>= 3000ft
5 à 8 km
1000 à 3000 ft
1500m à 5 km
500 à 1000 ft
800 à 1500m
200 à 500 ft
< 800m
< 200 ft
Symboles :   Orages  Brouillard  Fortes neiges  Fortes précipitations  Vent > 20 kt
SIGMETs :   Divers  Orages  Givrage  Turbulence  Onde Orograph.  Cendres Volcan.







- Altitude de l'aérodrome : 768 ft
- Code IATA : MXP


LIMC - Milano Malpensa

DERNIER METAR :
  • 270250Z 03007KT CAVOK 18/13 Q1019 NOSIG

METARs EXPIRÉS :
  • 270220Z 02005KT CAVOK 17/13 Q1019 NOSIG
  • 270150Z 36008KT CAVOK 17/13 Q1019 NOSIG
  • 270120Z 35008KT CAVOK 18/13 Q1019 NOSIG
  • 270050Z 02005KT CAVOK 18/13 Q1019 NOSIG
  • 270020Z 36009KT CAVOK 18/14 Q1019 NOSIG
  • 262350Z 36009KT CAVOK 19/14 Q1019 NOSIG

TAF TAF LIMC
Valide du 27 à 00h jusqu'au 28 à 06h UTC


262300Z 2700/2806 VRB05KT 9999 SCT030 SCT060
TEMPO 2703/2708 TSRA
TEMPO 2715/2806 TSRA
Pas de NOTAMs connus pour ce terrain.
2 SIGMETs publiés pour la FIR Milano (LIMM) :
 
Orages noyés dans la masse
LIMM SIGMET 9 VALID 262344/270244 LIIP
LIMM MILANO FIR EMBD TS OBS N OF LINE N4634 E01020 - N4627 E01354 TOP FL380 MOV ENE WKN=
Turbulence forte
LIMM SIGMET 1 VALID 270150/270550 LIIP
LIMM MILANO FIR SEV TURB FCST S OF LINE N4406 E00737 - N4415 E01359 FL280/410 STNR NC=



MET'MAP, la Météo Aéronautique d'un coup d'oeil ! - Copyright ORBIFLY Décembre 2007 - Disclaimer

ORBIFLY MET'MAP TEAM :

Programmation & Développement : Alexandra Zaïnal
Conception & Développement : Baudouin d'Aumeries
Co-Programmation & Développement : Marc-Olivier Méhu
Soutien technique & logistique : Manuel Goepfert

Contact : metmap@orbifly.com




SOURCES & CREDITS :

   NOAA